Time;durP1;ratioP1;P1;durP2;ratioP2;P2;SDS_P1;SDS_P2;PMS_P1;PMS_P2;Temp;Humidity;BMP_temperature;BMP_pressure;BME280_temperature;BME280_humidity;BME280_pressure;Samples;Min_cycle;Max_cycle;Signal;HPM_P1;HPM_P2
2021/05/24 00:00:11;;;;;;;1.02;0.50;;;18.40;52.50;;;;;;5080199;28;20028;-76
2021/05/24 00:02:38;;;;;;;1.25;1.10;;;18.40;52.50;;;;;;5071845;28;20029;-76
2021/05/24 00:05:07;;;;;;;0.90;0.60;;;18.40;52.50;;;;;;5061809;28;20024;-75
2021/05/24 00:07:33;;;;;;;1.15;0.70;;;18.40;52.50;;;;;;5054031;28;20024;-74
2021/05/24 00:10:00;;;;;;;3.63;0.80;;;18.40;52.60;;;;;;5076260;28;20418;-74
2021/05/24 00:12:27;;;;;;;3.40;0.70;;;18.40;52.80;;;;;;5075274;28;20534;-74
2021/05/24 00:14:55;;;;;;;1.85;0.75;;;18.40;53.00;;;;;;5074181;28;20137;-79
2021/05/24 00:17:22;;;;;;;1.40;0.70;;;18.30;53.00;;;;;;5067865;28;20020;-74
2021/05/24 00:19:48;;;;;;;3.85;1.08;;;18.30;53.10;;;;;;5070496;28;20031;-75
2021/05/24 00:22:16;;;;;;;3.22;0.50;;;18.30;53.20;;;;;;5069385;28;20053;-75
2021/05/24 00:24:42;;;;;;;1.58;0.80;;;18.30;53.20;;;;;;5071294;28;20499;-75
2021/05/24 00:27:09;;;;;;;0.85;0.60;;;18.30;53.20;;;;;;5067404;28;20476;-74
2021/05/24 00:29:35;;;;;;;1.40;0.63;;;18.30;53.30;;;;;;5062570;28;20071;-74
2021/05/24 00:32:02;;;;;;;3.67;0.68;;;18.30;53.30;;;;;;5067752;28;20013;-74
2021/05/24 00:34:29;;;;;;;3.35;0.70;;;18.30;53.20;;;;;;5067499;28;20450;-73
2021/05/24 00:36:55;;;;;;;3.55;0.70;;;18.20;53.40;;;;;;5065083;28;20510;-74
2021/05/24 00:39:23;;;;;;;1.45;0.85;;;18.20;53.50;;;;;;5064565;28;20025;-73
2021/05/24 00:41:50;;;;;;;0.95;0.77;;;18.20;53.50;;;;;;5067909;28;20047;-76
2021/05/24 00:44:16;;;;;;;3.85;0.85;;;18.20;53.60;;;;;;5068422;28;20104;-79
2021/05/24 00:46:43;;;;;;;5.22;0.85;;;18.20;53.60;;;;;;5061876;28;20357;-73
2021/05/24 00:49:10;;;;;;;1.65;0.73;;;18.10;53.60;;;;;;5070391;28;20040;-78
2021/05/24 00:51:36;;;;;;;1.40;0.80;;;18.10;53.70;;;;;;5060359;28;20431;-77
2021/05/24 00:54:03;;;;;;;1.77;0.55;;;18.10;53.80;;;;;;5070251;28;20025;-79
2021/05/24 00:56:30;;;;;;;3.58;0.90;;;18.10;53.90;;;;;;5066318;28;20091;-78
2021/05/24 00:58:57;;;;;;;0.75;0.75;;;18.10;54.00;;;;;;5061588;28;20503;-70
2021/05/24 01:01:27;;;;;;;3.78;1.13;;;18.10;54.10;;;;;;5064809;28;20017;-73
2021/05/24 01:03:55;;;;;;;1.17;1.00;;;18.10;54.20;;;;;;5064293;28;20031;-75
2021/05/24 01:06:22;;;;;;;4.35;1.17;;;18.10;54.40;;;;;;5064430;28;20025;-72
2021/05/24 01:08:48;;;;;;;1.63;0.63;;;18.00;54.40;;;;;;5050158;28;20434;-78
2021/05/24 01:11:15;;;;;;;0.85;0.80;;;18.10;54.40;;;;;;5066967;28;20476;-75
2021/05/24 01:13:43;;;;;;;4.18;1.20;;;18.00;54.50;;;;;;5066050;28;20452;-78
2021/05/24 01:16:09;;;;;;;4.97;1.23;;;18.00;54.50;;;;;;5061049;28;20063;-73
2021/05/24 01:18:36;;;;;;;1.77;0.70;;;18.00;54.60;;;;;;5062342;28;20024;-79
2021/05/24 01:21:08;;;;;;;2.03;1.10;;;17.90;54.50;;;;;;5061202;28;20025;-78
2021/05/24 01:23:39;;;;;;;1.33;0.80;;;17.90;54.60;;;;;;5066869;28;20017;-79
2021/05/24 01:26:06;;;;;;;0.82;0.57;;;18.00;54.60;;;;;;5064514;28;20055;-77
2021/05/24 01:28:33;;;;;;;2.78;1.00;;;17.90;54.40;;;;;;5051473;28;20462;-77
2021/05/24 01:31:01;;;;;;;1.52;0.75;;;17.90;54.30;;;;;;5059378;28;20044;-73
2021/05/24 01:33:33;;;;;;;1.48;1.02;;;17.90;54.30;;;;;;5058614;28;20025;-77
2021/05/24 01:36:02;;;;;;;0.95;0.90;;;17.90;54.20;;;;;;5064077;28;20491;-76
2021/05/24 01:38:32;;;;;;;2.78;1.00;;;17.90;54.20;;;;;;5064763;28;20067;-73
2021/05/24 01:40:58;;;;;;;1.48;0.90;;;17.90;54.30;;;;;;5064673;28;20017;-73
2021/05/24 01:43:28;;;;;;;2.63;1.35;;;17.90;54.40;;;;;;5058303;28;20021;-76
2021/05/24 01:45:56;;;;;;;1.80;1.08;;;17.90;54.60;;;;;;5062808;28;20028;-77
2021/05/24 01:48:23;;;;;;;2.65;1.55;;;17.80;54.60;;;;;;5061426;28;20016;-77
2021/05/24 01:50:51;;;;;;;1.50;1.10;;;17.90;54.80;;;;;;5065384;28;20152;-77
2021/05/24 01:53:19;;;;;;;2.85;1.15;;;17.80;54.90;;;;;;5065870;28;20030;-75
2021/05/24 01:55:45;;;;;;;2.15;1.15;;;17.80;54.90;;;;;;5061000;28;20028;-77
2021/05/24 01:58:13;;;;;;;8.27;2.03;;;17.80;55.00;;;;;;5059547;28;20059;-73
2021/05/24 02:00:40;;;;;;;6.47;5.07;;;17.80;55.10;;;;;;5063237;28;20016;-77
2021/05/24 02:03:07;;;;;;;8.30;6.00;;;17.80;55.20;;;;;;5065446;28;20032;-79
2021/05/24 02:05:35;;;;;;;8.70;6.18;;;17.80;55.30;;;;;;5063081;28;20082;-79
2021/05/24 02:08:03;;;;;;;5.55;4.05;;;17.80;55.40;;;;;;5063579;28;20033;-77
2021/05/24 02:10:35;;;;;;;8.07;3.67;;;17.80;55.40;;;;;;5063425;28;20543;-78
2021/05/24 02:13:04;;;;;;;7.10;3.15;;;17.70;55.40;;;;;;5062366;28;20024;-77
2021/05/24 02:15:33;;;;;;;4.60;2.83;;;17.70;55.30;;;;;;5061054;28;20100;-79
2021/05/24 02:18:00;;;;;;;4.65;2.03;;;17.70;55.00;;;;;;5062848;28;20476;-75
2021/05/24 02:20:27;;;;;;;2.47;1.90;;;17.70;54.70;;;;;;5065488;28;20024;-80
2021/05/24 02:22:56;;;;;;;5.70;2.05;;;17.60;54.30;;;;;;5063554;28;20029;-78
2021/05/24 02:25:24;;;;;;;2.25;1.70;;;17.60;54.10;;;;;;5062848;28;20045;-80
2021/05/24 02:27:51;;;;;;;3.63;1.67;;;17.60;53.50;;;;;;5066784;28;20090;-72
2021/05/24 02:30:19;;;;;;;3.55;1.60;;;17.60;53.00;;;;;;5064675;28;20425;-70
2021/05/24 02:32:46;;;;;;;6.03;1.50;;;17.60;52.10;;;;;;5060921;28;20013;-79
2021/05/24 02:35:16;;;;;;;5.55;1.77;;;17.60;51.70;;;;;;5062671;28;20058;-79
2021/05/24 02:37:45;;;;;;;3.47;1.42;;;17.60;51.70;;;;;;5065514;28;20025;-78
2021/05/24 02:40:14;;;;;;;3.40;1.50;;;17.70;52.30;;;;;;5061845;28;20063;-78
2021/05/24 02:42:40;;;;;;;4.25;1.55;;;17.70;52.20;;;;;;5059448;28;20104;-76
2021/05/24 02:45:09;;;;;;;6.45;1.40;;;17.80;52.30;;;;;;5061322;28;20475;-77
2021/05/24 02:47:36;;;;;;;3.17;1.20;;;17.80;52.20;;;;;;5060828;28;20013;-76
2021/05/24 02:50:07;;;;;;;5.47;1.60;;;17.80;52.00;;;;;;5064329;28;20092;-73
2021/05/24 02:52:33;;;;;;;5.57;1.70;;;17.80;52.10;;;;;;5061678;28;20012;-77
2021/05/24 02:55:00;;;;;;;3.22;1.75;;;17.80;52.10;;;;;;5062605;28;20018;-78
2021/05/24 02:57:27;;;;;;;2.72;1.17;;;17.80;52.30;;;;;;5065384;28;20024;-75
2021/05/24 02:59:53;;;;;;;3.50;1.92;;;17.80;52.40;;;;;;5063079;28;20463;-78
2021/05/24 03:02:26;;;;;;;5.85;1.15;;;17.80;52.50;;;;;;5064307;28;20397;-80
2021/05/24 03:04:53;;;;;;;3.17;1.38;;;17.80;52.60;;;;;;5063424;28;20036;-77
2021/05/24 03:07:19;;;;;;;3.40;1.15;;;17.70;52.70;;;;;;5065112;28;20031;-74
2021/05/24 03:09:46;;;;;;;5.05;1.05;;;17.80;52.80;;;;;;5063566;28;20033;-78
2021/05/24 03:12:12;;;;;;;4.65;1.38;;;17.70;52.80;;;;;;5065610;28;20044;-79
2021/05/24 03:14:39;;;;;;;2.25;1.00;;;17.70;52.90;;;;;;5064092;28;20017;-79
2021/05/24 03:17:06;;;;;;;3.45;0.90;;;17.70;52.90;;;;;;5064362;28;20040;-74
2021/05/24 03:19:32;;;;;;;2.15;0.88;;;17.70;53.00;;;;;;5062008;28;20012;-78
2021/05/24 03:21:59;;;;;;;7.07;1.45;;;17.60;53.00;;;;;;5063489;28;20053;-77
2021/05/24 03:24:25;;;;;;;4.65;1.10;;;17.60;53.00;;;;;;5061891;28;20041;-77
2021/05/24 03:26:52;;;;;;;4.10;1.70;;;17.60;53.10;;;;;;5056372;28;20384;-73
2021/05/24 03:29:18;;;;;;;10.00;1.45;;;17.60;53.00;;;;;;5061596;28;20048;-78
2021/05/24 03:31:45;;;;;;;2.95;1.23;;;17.60;53.00;;;;;;5065236;28;20021;-76
2021/05/24 03:34:11;;;;;;;5.22;1.00;;;17.60;53.10;;;;;;5059977;28;20021;-77
2021/05/24 03:36:38;;;;;;;2.45;0.90;;;17.60;53.00;;;;;;5062169;28;20480;-77
2021/05/24 03:39:05;;;;;;;4.97;0.95;;;17.60;53.00;;;;;;5063512;28;20025;-76
2021/05/24 03:41:31;;;;;;;2.55;0.88;;;17.60;53.00;;;;;;5059691;28;20024;-77
2021/05/24 03:43:58;;;;;;;3.30;0.90;;;17.60;53.00;;;;;;5058818;28;20550;-79
2021/05/24 03:46:25;;;;;;;3.38;1.50;;;17.50;52.80;;;;;;5065656;28;20043;-79
2021/05/24 03:48:51;;;;;;;2.60;0.60;;;17.50;52.90;;;;;;5063694;28;20353;-80
2021/05/24 03:51:18;;;;;;;2.67;1.02;;;17.50;52.70;;;;;;5061578;28;20383;-80
2021/05/24 03:53:44;;;;;;;2.28;0.90;;;17.50;52.60;;;;;;5061910;28;20086;-79
2021/05/24 03:56:12;;;;;;;3.90;1.48;;;17.50;52.70;;;;;;5063750;28;20036;-77
2021/05/24 03:58:39;;;;;;;2.33;1.25;;;17.50;52.70;;;;;;5065509;28;20074;-71
2021/05/24 04:01:06;;;;;;;1.48;0.80;;;17.50;52.70;;;;;;5064107;28;20385;-73
2021/05/24 04:03:32;;;;;;;1.70;0.90;;;17.60;52.80;;;;;;5061330;28;20402;-77
2021/05/24 04:06:01;;;;;;;14.48;10.98;;;17.50;52.70;;;;;;5060516;28;20484;-73
2021/05/24 04:08:38;;;;;;;17.85;5.70;;;17.50;52.60;;;;;;5049543;28;20483;-77
2021/05/24 04:11:05;;;;;;;7.53;4.13;;;17.50;52.30;;;;;;5064626;28;20058;-75
2021/05/24 04:13:32;;;;;;;8.98;3.50;;;17.50;52.10;;;;;;5067659;28;20611;-70
2021/05/24 04:15:59;;;;;;;6.75;3.88;;;17.50;52.20;;;;;;5066674;28;20103;-72
2021/05/24 04:18:29;;;;;;;6.63;3.15;;;17.50;52.20;;;;;;5062713;28;20586;-74
2021/05/24 04:20:56;;;;;;;5.30;2.88;;;17.50;52.00;;;;;;5064287;28;20487;-76
2021/05/24 04:23:22;;;;;;;17.38;9.82;;;17.50;52.10;;;;;;5069624;28;20031;-75
2021/05/24 04:25:49;;;;;;;20.77;15.80;;;17.50;52.10;;;;;;5065275;28;20044;-75
2021/05/24 04:28:16;;;;;;;14.20;7.90;;;17.50;52.00;;;;;;5069458;28;20021;-75
2021/05/24 04:30:45;;;;;;;9.15;5.63;;;17.50;51.90;;;;;;5067330;28;20690;-75
2021/05/24 04:33:14;;;;;;;9.32;5.22;;;17.50;51.80;;;;;;5067573;28;20026;-73
2021/05/24 04:35:42;;;;;;;6.45;3.72;;;17.50;51.80;;;;;;5067301;28;20747;-73
2021/05/24 04:38:09;;;;;;;6.97;3.80;;;17.50;51.70;;;;;;5066850;28;20047;-76
2021/05/24 04:40:36;;;;;;;3.83;2.67;;;17.50;51.70;;;;;;5068046;28;20102;-74
2021/05/24 04:43:02;;;;;;;3.67;2.22;;;17.50;51.60;;;;;;5065187;28;20113;-74
2021/05/24 04:45:30;;;;;;;5.72;2.42;;;17.50;51.70;;;;;;5068540;28;20016;-78
2021/05/24 04:47:56;;;;;;;5.30;2.30;;;17.50;51.80;;;;;;5063355;28;20099;-70
2021/05/24 04:50:23;;;;;;;3.65;2.20;;;17.50;51.80;;;;;;5043521;28;20500;-78
2021/05/24 04:52:49;;;;;;;5.65;1.70;;;17.60;52.10;;;;;;5068698;28;20036;-69
2021/05/24 04:55:18;;;;;;;6.43;1.75;;;17.50;52.00;;;;;;5066441;28;20033;-72
2021/05/24 04:57:45;;;;;;;2.63;1.60;;;17.50;52.10;;;;;;5063994;28;20939;-74
2021/05/24 05:00:13;;;;;;;5.57;1.77;;;17.60;52.20;;;;;;5065550;28;20107;-67
2021/05/24 05:02:40;;;;;;;7.88;1.92;;;17.50;52.00;;;;;;5061799;28;20373;-70
2021/05/24 05:05:09;;;;;;;2.83;1.80;;;17.50;51.90;;;;;;5063806;28;20025;-68
2021/05/24 05:07:35;;;;;;;4.93;2.67;;;17.50;51.90;;;;;;5062005;28;20024;-73
2021/05/24 05:10:02;;;;;;;5.82;1.52;;;17.50;51.80;;;;;;5062321;28;20036;-71
2021/05/24 05:12:29;;;;;;;3.88;1.83;;;17.50;51.70;;;;;;5066411;28;20078;-68
2021/05/24 05:14:57;;;;;;;6.80;1.90;;;17.50;51.70;;;;;;5069276;28;20567;-71
2021/05/24 05:17:24;;;;;;;6.10;2.00;;;17.50;51.70;;;;;;5063040;28;20013;-73
2021/05/24 05:19:51;;;;;;;5.35;2.58;;;17.50;51.60;;;;;;5063662;28;20429;-75
2021/05/24 05:22:18;;;;;;;3.95;1.40;;;17.50;51.60;;;;;;5064336;28;20047;-73
2021/05/24 05:24:44;;;;;;;7.15;2.05;;;17.50;51.50;;;;;;5065143;28;20036;-71
2021/05/24 05:27:11;;;;;;;5.05;1.90;;;17.50;51.50;;;;;;5064744;28;20103;-73
2021/05/24 05:29:37;;;;;;;5.60;2.17;;;17.50;51.50;;;;;;5063714;28;20119;-67
2021/05/24 05:32:04;;;;;;;8.07;1.85;;;17.50;51.50;;;;;;5064804;28;20021;-75
2021/05/24 05:34:30;;;;;;;4.72;1.30;;;17.50;51.60;;;;;;5066691;28;20026;-70
2021/05/24 05:36:57;;;;;;;6.88;1.67;;;17.60;51.60;;;;;;5066481;28;20395;-73
2021/05/24 05:39:23;;;;;;;3.08;1.30;;;17.50;51.40;;;;;;5061568;28;20108;-71
2021/05/24 05:41:50;;;;;;;4.25;1.27;;;17.60;51.50;;;;;;5064803;28;20109;-69
2021/05/24 05:44:16;;;;;;;2.88;1.42;;;17.60;51.70;;;;;;5067223;28;20458;-73
2021/05/24 05:46:43;;;;;;;5.50;1.73;;;17.60;51.60;;;;;;5064937;28;20141;-70
2021/05/24 05:49:09;;;;;;;5.65;1.80;;;17.60;51.70;;;;;;5065982;28;20033;-75
2021/05/24 05:51:36;;;;;;;4.68;1.83;;;17.60;51.60;;;;;;5065213;28;20017;-75
2021/05/24 05:54:03;;;;;;;3.28;1.52;;;17.60;51.40;;;;;;5065459;28;20074;-74
2021/05/24 05:56:30;;;;;;;4.35;2.30;;;17.60;51.60;;;;;;5067114;28;20017;-68
2021/05/24 05:59:36;;;;;;;4.22;2.83;;;17.60;51.60;;;;;;5060617;28;20059;-74
2021/05/24 06:02:03;;;;;;;4.57;1.73;;;17.60;51.60;;;;;;5043081;28;20093;-73
2021/05/24 06:04:29;;;;;;;3.72;1.45;;;17.60;51.70;;;;;;5060111;28;20519;-73
2021/05/24 06:06:56;;;;;;;5.07;1.60;;;17.70;51.80;;;;;;5060632;28;20032;-70
2021/05/24 06:09:22;;;;;;;3.42;1.67;;;17.60;51.90;;;;;;5064340;28;20025;-69
2021/05/24 06:11:52;;;;;;;9.55;2.17;;;17.60;52.00;;;;;;5057075;28;20056;-76
2021/05/24 06:14:22;;;;;;;7.57;2.10;;;17.60;52.10;;;;;;5063491;28;20052;-67
2021/05/24 06:16:49;;;;;;;4.55;3.40;;;17.60;52.20;;;;;;5061567;28;20020;-74
2021/05/24 06:19:16;;;;;;;5.75;1.40;;;17.60;52.20;;;;;;5063690;28;20437;-73
2021/05/24 06:22:22;;;;;;;5.22;1.55;;;17.60;52.10;;;;;;5058560;28;20005;-71
2021/05/24 06:25:28;;;;;;;8.93;1.70;;;17.60;52.20;;;;;;5061483;28;20057;-67
2021/05/24 06:27:55;;;;;;;7.20;2.17;;;17.60;52.20;;;;;;5057222;28;20357;-73
2021/05/24 06:30:21;;;;;;;3.72;1.48;;;17.60;52.30;;;;;;5060935;28;20040;-67
2021/05/24 06:32:48;;;;;;;4.32;1.65;;;17.60;52.40;;;;;;5059949;28;20025;-71
2021/05/24 06:35:14;;;;;;;4.65;2.17;;;17.60;52.40;;;;;;5059828;28;20476;-68
2021/05/24 06:37:41;;;;;;;4.57;1.83;;;17.60;52.50;;;;;;5056535;28;20029;-72
2021/05/24 06:40:08;;;;;;;7.45;1.83;;;17.60;52.50;;;;;;5059888;28;20320;-73
2021/05/24 06:42:34;;;;;;;4.55;1.63;;;17.60;52.70;;;;;;5056040;28;20028;-71
2021/05/24 06:45:01;;;;;;;9.95;2.05;;;17.60;52.80;;;;;;5056652;28;20028;-71
2021/05/24 06:47:27;;;;;;;9.48;3.45;;;17.60;52.90;;;;;;5054628;28;20028;-66
2021/05/24 06:49:54;;;;;;;4.28;1.42;;;17.60;52.90;;;;;;5058634;28;20037;-68
2021/05/24 06:52:20;;;;;;;3.75;1.60;;;17.70;53.10;;;;;;5059568;28;20099;-67
2021/05/24 06:54:47;;;;;;;4.25;1.85;;;17.70;53.20;;;;;;5057978;28;20009;-67
2021/05/24 06:57:13;;;;;;;3.97;1.80;;;17.70;53.30;;;;;;5059509;28;20024;-73
2021/05/24 06:59:40;;;;;;;5.25;1.15;;;17.70;53.30;;;;;;5058125;28;20021;-68
2021/05/24 07:02:08;;;;;;;4.63;1.90;;;17.80;53.40;;;;;;5057768;28;20036;-69
2021/05/24 07:04:37;;;;;;;7.90;2.22;;;17.80;53.50;;;;;;5054292;28;20047;-68
2021/05/24 07:07:04;;;;;;;5.70;4.18;;;17.90;53.60;;;;;;5060324;28;20115;-68
2021/05/24 07:09:31;;;;;;;4.63;1.60;;;17.90;53.60;;;;;;5059877;28;20032;-70
2021/05/24 07:11:57;;;;;;;5.72;2.13;;;17.90;53.70;;;;;;5071347;28;20029;-69
2021/05/24 07:14:24;;;;;;;7.45;3.00;;;17.90;53.80;;;;;;5058550;28;20027;-68
2021/05/24 07:16:50;;;;;;;6.93;1.90;;;17.90;54.00;;;;;;5056086;28;20024;-68
2021/05/24 07:19:17;;;;;;;6.50;2.47;;;18.00;54.10;;;;;;5057390;28;20111;-66
2021/05/24 07:21:43;;;;;;;7.40;1.73;;;18.00;54.10;;;;;;5057834;28;20055;-66
2021/05/24 07:24:10;;;;;;;9.80;1.95;;;18.00;54.10;;;;;;5059709;28;20049;-66
2021/05/24 07:26:37;;;;;;;9.27;1.83;;;18.10;54.20;;;;;;5059434;28;20074;-66
2021/05/24 07:29:04;;;;;;;10.85;3.00;;;18.10;54.10;;;;;;5064081;28;20032;-68
2021/05/24 07:31:30;;;;;;;9.48;2.83;;;18.10;54.00;;;;;;5067541;28;20028;-67
2021/05/24 07:33:57;;;;;;;10.23;2.20;;;18.20;54.20;;;;;;5066105;28;20492;-66
2021/05/24 07:36:24;;;;;;;5.63;1.80;;;18.20;54.20;;;;;;5059665;28;20032;-69
2021/05/24 07:38:50;;;;;;;8.23;2.50;;;18.20;54.30;;;;;;5063731;28;20476;-68
2021/05/24 07:41:17;;;;;;;8.43;2.58;;;18.30;54.30;;;;;;5063147;28;20031;-66
2021/05/24 07:43:43;;;;;;;6.03;2.80;;;18.30;54.20;;;;;;5059355;28;20025;-66
2021/05/24 07:46:10;;;;;;;8.73;3.63;;;18.30;54.20;;;;;;5067236;28;20032;-67
2021/05/24 07:48:36;;;;;;;9.73;2.80;;;18.40;54.30;;;;;;5072035;28;20016;-66
2021/05/24 07:51:04;;;;;;;12.07;2.17;;;18.40;54.40;;;;;;5066702;28;20039;-69
2021/05/24 07:53:30;;;;;;;9.77;3.53;;;18.40;54.50;;;;;;5062727;28;20029;-69
2021/05/24 07:55:57;;;;;;;13.07;2.88;;;18.40;54.50;;;;;;5065174;28;20067;-70
2021/05/24 07:58:24;;;;;;;13.57;4.78;;;18.50;54.40;;;;;;5069707;28;20067;-67
2021/05/24 08:00:51;;;;;;;6.55;3.35;;;18.50;54.50;;;;;;5064753;28;20023;-68
2021/05/24 08:03:17;;;;;;;7.63;2.10;;;18.50;54.60;;;;;;5058357;28;20386;-68
2021/05/24 08:05:44;;;;;;;8.95;3.22;;;18.50;54.60;;;;;;5064071;28;20032;-75
2021/05/24 08:08:10;;;;;;;10.88;2.38;;;18.50;54.70;;;;;;5068670;28;20021;-74
2021/05/24 08:10:37;;;;;;;10.15;2.90;;;18.50;54.80;;;;;;5066501;28;20040;-66
2021/05/24 08:13:03;;;;;;;10.93;2.70;;;18.50;54.80;;;;;;5068036;28;20028;-66
2021/05/24 08:15:32;;;;;;;14.25;2.83;;;18.60;54.90;;;;;;5068218;28;20154;-66
2021/05/24 08:18:07;;;;;;;13.65;3.30;;;18.60;55.00;;;;;;5068873;28;20036;-66
2021/05/24 08:20:34;;;;;;;5.93;2.42;;;18.60;55.20;;;;;;5066658;28;20024;-68
2021/05/24 08:23:00;;;;;;;10.75;2.60;;;18.60;55.30;;;;;;5065280;28;20037;-66
2021/05/24 08:25:27;;;;;;;7.40;2.70;;;18.60;55.40;;;;;;5065446;28;20048;-67
2021/05/24 08:27:53;;;;;;;9.02;2.80;;;18.70;55.60;;;;;;5067525;28;20017;-69
2021/05/24 08:30:21;;;;;;;5.80;2.53;;;18.70;55.70;;;;;;5062679;28;20140;-69
2021/05/24 08:32:47;;;;;;;14.02;3.88;;;18.80;55.60;;;;;;5067263;28;20041;-71
2021/05/24 08:35:14;;;;;;;7.00;2.50;;;18.80;55.40;;;;;;5065609;28;20024;-74
2021/05/24 08:37:40;;;;;;;6.97;3.03;;;18.80;55.10;;;;;;5067404;28;20016;-75
2021/05/24 08:40:08;;;;;;;14.63;3.45;;;18.90;54.60;;;;;;5065819;28;20396;-71
2021/05/24 08:42:41;;;;;;;9.80;3.20;;;18.90;54.60;;;;;;5068400;28;20024;-67
2021/05/24 08:45:08;;;;;;;13.75;3.45;;;19.00;54.30;;;;;;5054857;28;20557;-69
2021/05/24 08:47:35;;;;;;;11.60;4.18;;;19.00;54.50;;;;;;5063890;28;20027;-67
2021/05/24 08:50:01;;;;;;;16.23;4.22;;;19.00;54.90;;;;;;5066457;28;20121;-69
2021/05/24 08:52:29;;;;;;;12.75;3.45;;;19.10;55.60;;;;;;5063657;28;20060;-69
2021/05/24 08:54:56;;;;;;;9.60;3.17;;;19.10;56.20;;;;;;5062979;28;20025;-67
2021/05/24 08:57:23;;;;;;;17.50;4.65;;;19.10;56.80;;;;;;5067316;28;20388;-68
2021/05/24 08:59:49;;;;;;;16.02;4.32;;;19.10;57.60;;;;;;5061389;28;20029;-70
2021/05/24 09:02:16;;;;;;;13.48;5.07;;;19.10;58.50;;;;;;5065401;28;20028;-76
2021/05/24 09:04:48;;;;;;;14.50;3.83;;;19.10;58.90;;;;;;5065475;28;20502;-72
2021/05/24 09:07:15;;;;;;;10.27;3.67;;;19.10;59.30;;;;;;5065847;28;20027;-70
2021/05/24 09:10:00;;;;;;;24.17;5.07;;;19.10;59.90;;;;;;5063465;28;20113;-72
2021/05/24 09:12:31;;;;;;;14.32;5.22;;;19.10;60.20;;;;;;5067185;28;20388;-66
2021/05/24 09:15:01;;;;;;;13.10;3.53;;;19.10;60.70;;;;;;5061801;28;20097;-76
2021/05/24 09:17:47;;;;;;;16.70;4.82;;;19.10;60.90;;;;;;5062626;28;20054;-66
2021/05/24 09:20:36;;;;;;;18.05;4.40;;;19.20;61.70;;;;;;5069567;28;20040;-70
2021/05/24 09:23:12;;;;;;;14.57;4.72;;;19.20;62.30;;;;;;5062776;28;20024;-70
2021/05/24 09:26:04;;;;;;;25.00;5.95;;;19.30;63.40;;;;;;5061814;28;20055;-70
2021/05/24 09:28:51;;;;;;;20.23;4.78;;;19.30;65.20;;;;;;5072798;28;20085;-72
2021/05/24 09:31:22;;;;;;;19.85;4.25;;;19.30;65.30;;;;;;5065675;28;20062;-67
2021/05/24 09:33:50;;;;;;;23.55;5.03;;;19.30;66.00;;;;;;5064969;28;20074;-67
2021/05/24 09:36:17;;;;;;;20.58;4.90;;;19.30;66.30;;;;;;5064389;28;20027;-73
2021/05/24 09:38:52;;;;;;;18.52;4.20;;;19.40;66.90;;;;;;5063379;28;20021;-71
2021/05/24 09:41:21;;;;;;;26.30;5.47;;;19.30;67.30;;;;;;5051651;28;20036;-72
2021/05/24 09:43:56;;;;;;;16.75;4.47;;;19.40;67.70;;;;;;5061270;28;20068;-68
2021/05/24 09:46:24;;;;;;;;;;;19.40;67.90;;;;;;5065386;28;20084;-68
2021/05/24 09:48:53;;;;;;;16.98;3.67;;;19.40;68.10;;;;;;5064769;28;19951;-70
2021/05/24 09:51:25;;;;;;;22.90;4.25;;;19.50;68.40;;;;;;5067713;28;21875;-67
2021/05/24 09:54:02;;;;;;;18.52;4.97;;;19.50;68.50;;;;;;5060866;28;20055;-67
2021/05/24 09:56:34;;;;;;;21.55;5.57;;;19.50;68.60;;;;;;5060948;28;20036;-70
2021/05/24 09:59:13;;;;;;;17.92;3.40;;;19.60;68.80;;;;;;5067640;28;20055;-67
2021/05/24 10:01:43;;;;;;;13.98;4.25;;;19.60;68.90;;;;;;5065959;28;20064;-66
2021/05/24 10:04:18;;;;;;;17.58;5.47;;;19.70;69.60;;;;;;5065657;28;20025;-67
2021/05/24 10:06:45;;;;;;;19.58;4.40;;;19.70;69.90;;;;;;5063428;28;20021;-76
2021/05/24 10:09:14;;;;;;;11.48;3.92;;;19.70;69.70;;;;;;5067164;28;20036;-72
2021/05/24 10:11:45;;;;;;;18.60;4.25;;;19.80;70.00;;;;;;5067408;28;20024;-67
2021/05/24 10:14:16;;;;;;;19.67;3.88;;;19.80;70.30;;;;;;5064229;28;20021;-75
2021/05/24 10:16:47;;;;;;;15.80;3.78;;;19.80;70.40;;;;;;5063999;28;20032;-72
2021/05/24 10:19:17;;;;;;;15.95;4.45;;;19.80;70.90;;;;;;5064858;28;20043;-68
2021/05/24 10:21:48;;;;;;;14.43;4.60;;;19.90;71.10;;;;;;5063292;28;20017;-69
2021/05/24 10:24:16;;;;;;;14.40;5.00;;;19.90;71.40;;;;;;5065100;28;20568;-67
2021/05/24 10:26:43;;;;;;;17.02;5.03;;;19.90;71.90;;;;;;5064257;28;20078;-68
2021/05/24 10:29:11;;;;;;;12.20;3.80;;;19.90;72.10;;;;;;5066506;28;20036;-66
2021/05/24 10:31:38;;;;;;;18.15;4.07;;;19.90;72.40;;;;;;5063760;28;20029;-66
2021/05/24 10:34:14;;;;;;;23.25;4.30;;;19.90;72.80;;;;;;5052383;28;20059;-70
2021/05/24 10:36:42;;;;;;;17.38;3.83;;;20.00;72.90;;;;;;5051310;28;20029;-76
2021/05/24 10:39:20;;;;;;;16.85;4.55;;;20.00;73.30;;;;;;5066132;28;20032;-75
2021/05/24 10:41:55;;;;;;;20.73;4.85;;;20.00;73.60;;;;;;5062897;28;20482;-73
2021/05/24 10:44:36;;;;;;;12.77;3.95;;;20.00;73.80;;;;;;5064077;28;20051;-73
2021/05/24 10:47:29;;;;;;;19.67;4.15;;;20.00;74.00;;;;;;5063832;28;20087;-69
2021/05/24 10:50:05;;;;;;;14.85;4.13;;;20.00;74.20;;;;;;5059253;28;20040;-71
2021/05/24 10:52:39;;;;;;;16.20;4.03;;;20.00;74.30;;;;;;5067011;28;20111;-73
2021/05/24 10:55:28;;;;;;;20.02;4.40;;;19.90;74.30;;;;;;5062567;28;20035;-67
2021/05/24 10:57:58;;;;;;;17.98;4.00;;;19.90;74.40;;;;;;5061168;28;20029;-69
2021/05/24 11:00:26;;;;;;;14.23;4.95;;;19.90;74.50;;;;;;5065745;28;20039;-72
2021/05/24 11:02:54;;;;;;;24.42;5.10;;;19.90;74.90;;;;;;5059820;28;20021;-69
2021/05/24 11:05:30;;;;;;;20.02;4.78;;;19.90;75.00;;;;;;5060177;28;20458;-67
2021/05/24 11:08:09;;;;;;;21.25;5.20;;;19.90;74.90;;;;;;5059650;28;20043;-69
2021/05/24 11:10:46;;;;;;;13.05;4.25;;;19.90;75.20;;;;;;5060385;28;20046;-77
2021/05/24 11:13:12;;;;;;;17.85;4.47;;;19.90;75.30;;;;;;5067887;28;20516;-74
2021/05/24 11:15:41;;;;;;;14.32;3.55;;;19.90;75.50;;;;;;5065566;28;20012;-75
2021/05/24 11:18:07;;;;;;;20.67;4.43;;;19.90;75.50;;;;;;5060896;28;20107;-69
2021/05/24 11:20:39;;;;;;;15.25;3.20;;;19.90;75.50;;;;;;5062055;28;20951;-68
2021/05/24 11:28:21;;;;;;;14.10;3.00;;;19.90;75.60;;;;;;5061122;28;20504;-70
2021/05/24 11:31:10;;;;;;;14.02;3.15;;;20.00;75.90;;;;;;5067812;28;20079;-68
2021/05/24 11:33:47;;;;;;;11.70;3.25;;;20.00;75.80;;;;;;5057181;28;20017;-67
2021/05/24 11:36:20;;;;;;;18.33;5.57;;;20.00;75.70;;;;;;5064062;28;20086;-76
2021/05/24 11:39:03;;;;;;;14.35;3.50;;;20.00;75.60;;;;;;5060572;28;20024;-76
2021/05/24 11:41:31;;;;;;;13.38;3.92;;;20.10;75.70;;;;;;5064197;28;20100;-69
2021/05/24 11:44:03;;;;;;;12.52;3.95;;;20.10;75.50;;;;;;5064162;28;20024;-75
2021/05/24 11:46:46;;;;;;;17.00;4.00;;;20.10;75.30;;;;;;5063722;28;20415;-73
2021/05/24 11:49:14;;;;;;;15.77;4.88;;;20.10;75.30;;;;;;5060026;28;20013;-70
2021/05/24 11:51:42;;;;;;;15.80;3.65;;;20.20;75.20;;;;;;5060946;28;20021;-68
2021/05/24 11:54:21;;;;;;;16.35;3.35;;;20.30;75.00;;;;;;5059897;28;20028;-68
2021/05/24 11:56:52;;;;;;;9.65;2.75;;;20.30;74.90;;;;;;5067382;28;20057;-72
2021/05/24 11:59:22;;;;;;;11.20;3.03;;;20.30;74.70;;;;;;5061234;28;20052;-70
2021/05/24 12:01:50;;;;;;;12.98;3.65;;;20.40;74.60;;;;;;5063009;28;20368;-67
2021/05/24 12:04:25;;;;;;;17.83;3.38;;;20.40;74.40;;;;;;5052624;28;20043;-68
2021/05/24 12:06:54;;;;;;;14.48;3.10;;;20.40;74.30;;;;;;5060755;28;20017;-77
2021/05/24 12:09:39;;;;;;;14.63;3.33;;;20.40;74.20;;;;;;5064225;28;20148;-76
2021/05/24 12:12:17;;;;;;;14.13;3.42;;;20.40;74.10;;;;;;5059809;28;20554;-77
2021/05/24 12:14:46;;;;;;;11.85;2.47;;;20.40;74.30;;;;;;5057184;28;20035;-76
2021/05/24 12:17:18;;;;;;;12.30;3.13;;;20.50;74.30;;;;;;5060661;28;20096;-70
2021/05/24 12:19:45;;;;;;;11.63;3.60;;;20.40;74.00;;;;;;5061774;28;20025;-68
2021/05/24 12:22:14;;;;;;;20.95;5.30;;;20.40;74.20;;;;;;5061346;28;20078;-68
2021/05/24 12:24:46;;;;;;;10.98;3.05;;;20.40;74.50;;;;;;5063158;28;20135;-68
2021/05/24 12:27:14;;;;;;;8.07;2.40;;;20.40;74.60;;;;;;5047643;28;20025;-67
2021/05/24 12:30:17;;;;;;;11.88;2.88;;;20.40;74.80;;;;;;5058566;28;20028;-70
2021/05/24 12:32:55;;;;;;;13.25;3.30;;;20.40;74.90;;;;;;5064967;28;20024;-67
2021/05/24 12:35:26;;;;;;;9.73;2.75;;;20.50;74.80;;;;;;5068539;28;20028;-73
2021/05/24 12:38:08;;;;;;;9.77;4.63;;;20.50;74.70;;;;;;5064003;28;20029;-68
2021/05/24 12:40:35;;;;;;;13.18;3.45;;;20.60;74.60;;;;;;5068039;28;20020;-73
2021/05/24 12:43:03;;;;;;;15.05;4.43;;;20.60;74.20;;;;;;5052739;28;20029;-75
2021/05/24 12:45:31;;;;;;;14.27;3.67;;;20.60;73.80;;;;;;5064060;28;20020;-71
2021/05/24 12:48:11;;;;;;;12.07;2.78;;;20.70;73.70;;;;;;5043075;28;20384;-70
2021/05/24 12:50:38;;;;;;;10.70;3.17;;;20.70;73.60;;;;;;5063648;28;20025;-68
2021/05/24 12:53:12;;;;;;;15.65;4.35;;;20.70;73.30;;;;;;5068371;28;20021;-67
2021/05/24 12:55:39;;;;;;;17.33;4.18;;;20.70;73.30;;;;;;5065891;28;20029;-69
2021/05/24 12:58:13;;;;;;;12.15;4.07;;;20.80;73.30;;;;;;5067649;28;20096;-69